Time;durP1;ratioP1;P1;durP2;ratioP2;P2;SDS_P1;SDS_P2;PMS_P1;PMS_P2;Temp;Humidity;BMP_temperature;BMP_pressure;BME280_temperature;BME280_humidity;BME280_pressure;Samples;Min_cycle;Max_cycle;Signal;HPM_P1;HPM_P2
2024/01/26 00:01:39;;;;;;;;;;;;;;;14.97;61.80;101351.41;6105430;23;8450;-85
2024/01/26 00:04:04;;;;;;;;;;;;;;;14.99;61.82;101352.34;6089361;23;6905;-85
2024/01/26 00:06:30;;;;;;;;;;;;;;;15.01;61.80;101350.72;6086185;23;6918;-79
2024/01/26 00:08:56;;;;;;;;;;;;;;;15.03;61.59;101353.38;6089575;23;6985;-78
2024/01/26 00:11:23;;;;;;;;;;;;;;;15.05;62.01;101360.34;6090260;23;6758;-78
2024/01/26 00:13:49;;;;;;;;;;;;;;;15.06;61.79;101354.38;6062180;23;6959;-78
2024/01/26 00:16:14;;;;;;;;;;;;;;;15.07;61.63;101352.69;6064380;23;6973;-78
2024/01/26 00:18:40;;;;;;;;;;;;;;;15.08;61.30;101345.03;6065205;23;6929;-78
2024/01/26 00:21:07;;;;;;;;;;;;;;;15.09;61.88;101343.31;6067425;23;7045;-78
2024/01/26 00:23:32;;;;;;;;;;;;;;;15.08;61.74;101337.28;6089325;23;7205;-78
2024/01/26 00:25:58;;;;;;;;;;;;;;;15.09;62.00;101338.16;6091604;23;7124;-78
2024/01/26 00:28:24;;;;;;;;;;;;;;;15.07;61.67;101338.09;6088802;23;7073;-77
2024/01/26 00:30:49;;;;;;;;;;;;;;;15.09;61.96;101336.47;6088274;23;6915;-78
2024/01/26 00:33:15;;;;;;;;;;;;;;;15.09;61.51;101344.22;6090936;23;7479;-78
2024/01/26 00:35:40;;;;;;;;;;;;;;;15.10;61.56;101345.06;6089303;23;6874;-78
2024/01/26 00:38:06;;;;;;;;;;;;;;;15.11;61.66;101341.66;6091940;23;6771;-78
2024/01/26 00:40:32;;;;;;;;;;;;;;;15.11;61.51;101342.56;6090517;23;6946;-78
2024/01/26 00:42:57;;;;;;;;;;;;;;;15.11;61.51;101347.72;6090061;23;6759;-78
2024/01/26 00:45:23;;;;;;;;;;;;;;;15.11;61.81;101341.66;6065840;23;7144;-79
2024/01/26 00:47:49;;;;;;;;;;;;;;;15.11;61.33;101341.66;6111202;23;6782;-78
2024/01/26 00:50:14;;;;;;;;;;;;;;;15.10;61.64;101340.81;6114202;23;6766;-77
2024/01/26 00:52:40;;;;;;;;;;;;;;;15.10;61.07;101345.06;6065363;23;6917;-77
2024/01/26 00:55:06;;;;;;;;;;;;;;;15.07;61.31;101345.84;6113429;23;6822;-78
2024/01/26 00:57:31;;;;;;;;;;;;;;;15.04;61.75;101347.41;6114124;23;6998;-78
2024/01/26 00:59:59;;;;;;;;;;;;;;;14.99;61.13;101342.03;6114050;23;6764;-77
2024/01/26 01:02:25;;;;;;;;;;;;;;;14.95;61.82;101342.69;6086493;23;6965;-77
2024/01/26 01:04:51;;;;;;;;;;;;;;;14.91;61.29;101340.78;6114390;23;6843;-77
2024/01/26 01:07:17;;;;;;;;;;;;;;;14.87;61.48;101339.78;6088791;23;6887;-77
2024/01/26 01:09:42;;;;;;;;;;;;;;;14.84;62.24;101342.22;6090334;23;7024;-77
2024/01/26 01:12:08;;;;;;;;;;;;;;;14.82;61.88;101348.97;6113423;23;6796;-77
2024/01/26 01:14:36;;;;;;;;;;;;;;;14.79;61.79;101342.00;6091161;23;6770;-76
2024/01/26 01:17:04;;;;;;;;;;;;;;;14.78;61.95;101342.84;6093174;23;7123;-73
2024/01/26 01:19:30;;;;;;;;;;;;;;;14.76;62.39;101341.84;6069864;23;7053;-74
2024/01/26 01:21:56;;;;;;;;;;;;;;;14.76;61.93;101348.72;6118973;23;6921;-75
2024/01/26 01:24:23;;;;;;;;;;;;;;;14.76;61.77;101338.41;6093363;23;6782;-74
2024/01/26 01:26:49;;;;;;;;;;;;;;;14.76;62.42;101348.72;6118626;23;6970;-74
2024/01/26 01:29:14;;;;;;;;;;;;;;;14.76;62.15;101340.97;6117993;23;6972;-75
2024/01/26 01:31:40;;;;;;;;;;;;;;;14.76;62.50;101344.44;6117398;23;6835;-74
2024/01/26 01:34:05;;;;;;;;;;;;;;;14.78;62.39;101349.66;6096560;23;6818;-76
2024/01/26 01:36:31;;;;;;;;;;;;;;;14.79;62.46;101356.59;6093043;23;7142;-74
2024/01/26 01:38:57;;;;;;;;;;;;;;;14.78;62.25;101349.66;6119159;23;6808;-76
2024/01/26 01:41:22;;;;;;;;;;;;;;;14.76;62.16;101341.84;6119234;23;7197;-75
2024/01/26 01:43:57;;;;;;;;;;;;;;;14.77;62.25;101355.66;6118790;23;6822;-75
2024/01/26 01:46:23;;;;;;;;;;;;;;;14.76;62.29;101351.31;6117857;23;6831;-74
2024/01/26 01:48:50;;;;;;;;;;;;;;;14.75;62.02;101352.13;6094569;23;6767;-74
2024/01/26 01:51:16;;;;;;;;;;;;;;;14.75;62.19;101347.81;6116143;23;6972;-75
2024/01/26 01:53:43;;;;;;;;;;;;;;;14.77;62.81;101343.63;6117852;23;6957;-75
2024/01/26 01:56:11;;;;;;;;;;;;;;;14.76;62.36;101334.09;6093787;23;7610;-74
2024/01/26 01:58:41;;;;;;;;;;;;;;;14.78;62.29;101332.50;6117472;23;7251;-74
2024/01/26 02:01:08;;;;;;;;;;;;;;;14.80;62.82;101335.13;6093886;23;6782;-74
2024/01/26 02:03:34;;;;;;;;;;;;;;;14.81;62.43;101324.00;6094579;23;6779;-74
2024/01/26 02:06:00;;;;;;;;;;;;;;;14.82;62.48;101329.25;6092020;23;7225;-75
2024/01/26 02:08:25;;;;;;;;;;;;;;;14.84;62.64;101325.03;6095821;23;6767;-73
2024/01/26 02:10:51;;;;;;;;;;;;;;;14.86;62.14;101319.94;6117164;23;6927;-73
2024/01/26 02:13:16;;;;;;;;;;;;;;;14.86;62.46;101310.47;6093359;23;7233;-74
2024/01/26 02:15:42;;;;;;;;;;;;;;;14.89;62.01;101311.47;6116586;23;6781;-73
2024/01/26 02:18:08;;;;;;;;;;;;;;;14.89;62.20;101314.91;6118352;23;6826;-75
2024/01/26 02:20:33;;;;;;;;;;;;;;;14.88;62.09;101297.66;6093987;23;6763;-73
2024/01/26 02:22:59;;;;;;;;;;;;;;;14.88;62.04;101287.34;6117922;23;6779;-73
2024/01/26 02:25:25;;;;;;;;;;;;;;;14.91;61.76;101284.88;6115269;23;6928;-75
2024/01/26 02:27:52;;;;;;;;;;;;;;;14.92;61.60;101278.03;6132074;23;7008;-75
2024/01/26 02:30:21;;;;;;;;;;;;;;;14.94;61.54;101281.56;6091892;23;6796;-82
2024/01/26 02:32:46;;;;;;;;;;;;;;;14.93;61.43;101275.53;6047165;23;6777;-84
2024/01/26 02:35:12;;;;;;;;;;;;;;;14.96;61.69;101264.44;6044489;23;6917;-82
2024/01/26 02:37:41;;;;;;;;;;;;;;;14.96;61.04;101265.34;6069077;23;6958;-83
2024/01/26 02:40:12;;;;;;;;;;;;;;;14.97;61.36;101255.91;6092305;23;6918;-84
2024/01/26 02:42:37;;;;;;;;;;;;;;;14.96;61.00;101246.38;6064409;23;7091;-83
2024/01/26 02:45:06;;;;;;;;;;;;;;;14.97;61.13;101240.41;6066439;23;6899;-84
2024/01/26 02:47:32;;;;;;;;;;;;;;;14.94;61.38;101229.94;6065986;23;6765;-82
2024/01/26 02:49:57;;;;;;;;;;;;;;;14.96;60.97;101236.03;6091251;23;6766;-82
2024/01/26 02:52:26;;;;;;;;;;;;;;;14.96;60.97;101248.94;6065473;23;6968;-83
2024/01/26 02:54:57;;;;;;;;;;;;;;;14.98;61.05;101257.66;6064999;23;6834;-83
2024/01/26 02:57:23;;;;;;;;;;;;;;;14.99;60.89;101260.28;6044643;23;6744;-85
2024/01/26 02:59:50;;;;;;;;;;;;;;;14.99;60.98;101249.97;6018156;23;6930;-83
2024/01/26 03:02:25;;;;;;;;;;;;;;;15.03;60.63;101250.13;5985525;23;6732;-83
2024/01/26 03:04:55;;;;;;;;;;;;;;;15.03;60.57;101245.81;6036558;23;6923;-83
2024/01/26 03:07:23;;;;;;;;;;;;;;;15.04;60.78;101239.84;6031370;23;6890;-84
2024/01/26 03:09:49;;;;;;;;;;;;;;;15.05;60.68;101241.59;6051014;23;6759;-81
2024/01/26 03:12:15;;;;;;;;;;;;;;;15.06;59.90;101243.38;6046752;23;6785;-82
2024/01/26 03:14:41;;;;;;;;;;;;;;;15.01;60.29;101242.31;6070487;23;6929;-81
2024/01/26 03:17:10;;;;;;;;;;;;;;;14.96;60.18;101243.78;6046930;23;7250;-81
2024/01/26 03:19:41;;;;;;;;;;;;;;;14.93;60.00;101238.50;6068828;23;6942;-83
2024/01/26 03:22:09;;;;;;;;;;;;;;;14.94;60.75;101238.56;6064359;23;7028;-83
2024/01/26 03:24:35;;;;;;;;;;;;;;;14.89;60.22;101226.28;6075291;23;6935;-85
2024/01/26 03:27:01;;;;;;;;;;;;;;;14.85;59.36;101235.59;6095856;23;6891;-85
2024/01/26 03:29:29;;;;;;;;;;;;;;;14.80;60.04;101243.13;6074624;23;6914;-85
2024/01/26 03:31:55;;;;;;;;;;;;;;;14.75;59.55;101243.75;6115127;23;7181;-84
2024/01/26 03:34:21;;;;;;;;;;;;;;;14.68;59.63;101237.41;6098671;23;6737;-84
2024/01/26 03:39:14;;;;;;;;;;;;;;;14.69;60.58;101223.69;6095496;23;7031;-75
2024/01/26 03:41:41;;;;;;;;;;;;;;;14.74;60.19;101231.66;6095940;23;6922;-76
2024/01/26 03:44:07;;;;;;;;;;;;;;;14.76;59.72;101230.88;6119794;23;7050;-73
2024/01/26 03:46:32;;;;;;;;;;;;;;;14.78;60.08;101213.81;6091523;23;6968;-74
2024/01/26 03:48:58;;;;;;;;;;;;;;;14.80;60.20;101195.78;6068714;23;6771;-74
2024/01/26 03:51:24;;;;;;;;;;;;;;;14.82;59.81;101189.88;6067431;23;6930;-75
2024/01/26 03:53:49;;;;;;;;;;;;;;;14.86;59.73;101186.59;6067508;23;6925;-73
2024/01/26 03:56:15;;;;;;;;;;;;;;;14.90;59.87;101184.19;6090352;23;7154;-76
2024/01/26 03:58:43;;;;;;;;;;;;;;;14.95;59.98;101180.06;6089988;23;7200;-74
2024/01/26 04:01:09;;;;;;;;;;;;;;;14.97;59.72;101175.88;6090097;23;6966;-73
2024/01/26 04:03:35;;;;;;;;;;;;;;;14.98;59.88;101183.66;6091548;23;6868;-73
2024/01/26 04:06:03;;;;;;;;;;;;;;;14.99;59.42;101171.66;6068796;23;6763;-74
2024/01/26 04:08:30;;;;;;;;;;;;;;;15.03;59.38;101175.25;6090117;23;7131;-74
2024/01/26 04:10:56;;;;;;;;;;;;;;;15.04;59.51;101169.28;6068057;23;6959;-73
2024/01/26 04:13:21;;;;;;;;;;;;;;;15.05;59.73;101171.03;6091297;23;6936;-73
2024/01/26 04:15:47;;;;;;;;;;;;;;;15.07;58.84;101166.81;6090364;23;6822;-75
2024/01/26 04:18:13;;;;;;;;;;;;;;;15.07;59.61;101149.63;6090461;23;6822;-74
2024/01/26 04:20:38;;;;;;;;;;;;;;;15.07;59.00;101149.63;6090857;23;6766;-74
2024/01/26 04:23:04;;;;;;;;;;;;;;;15.07;58.90;101149.63;6087614;23;6766;-73
2024/01/26 04:25:29;;;;;;;;;;;;;;;15.06;59.37;101146.97;6065625;23;6937;-73
2024/01/26 04:27:55;;;;;;;;;;;;;;;15.05;59.24;101150.38;6091150;23;6766;-74
2024/01/26 04:30:21;;;;;;;;;;;;;;;15.03;58.76;101149.44;6089285;23;6974;-74
2024/01/26 04:32:46;;;;;;;;;;;;;;;15.02;59.00;101148.53;6089303;23;6919;-73
2024/01/26 04:35:12;;;;;;;;;;;;;;;15.02;59.26;101135.63;6065582;23;6907;-73
2024/01/26 04:37:37;;;;;;;;;;;;;;;15.03;59.27;101134.81;6090200;23;7145;-73
2024/01/26 04:40:04;;;;;;;;;;;;;;;15.03;59.00;101132.25;6093307;23;6958;-72
2024/01/26 04:42:30;;;;;;;;;;;;;;;14.99;59.02;101130.34;6067420;23;6974;-76
2024/01/26 04:44:56;;;;;;;;;;;;;;;14.94;58.98;101125.00;6066270;23;6831;-74
2024/01/26 04:47:22;;;;;;;;;;;;;;;14.90;59.01;101119.66;6087678;23;6895;-77
2024/01/26 04:49:48;;;;;;;;;;;;;;;14.86;58.59;101109.19;6086334;23;6771;-77
2024/01/26 04:52:14;;;;;;;;;;;;;;;14.82;59.46;101098.66;6086521;23;6762;-77
2024/01/26 04:54:40;;;;;;;;;;;;;;;14.77;58.61;101088.16;6086506;23;7127;-77
2024/01/26 04:57:06;;;;;;;;;;;;;;;14.73;59.02;101101.75;6085941;23;6949;-77
2024/01/26 04:59:34;;;;;;;;;;;;;;;14.69;58.77;101089.53;6062336;23;6786;-77
2024/01/26 05:02:00;;;;;;;;;;;;;;;14.64;58.87;101096.16;6062690;23;6977;-77
2024/01/26 05:04:25;;;;;;;;;;;;;;;14.58;59.48;101092.53;6063266;23;6815;-77
2024/01/26 05:06:51;;;;;;;;;;;;;;;14.57;59.57;101089.88;6084033;23;7197;-77
2024/01/26 05:09:17;;;;;;;;;;;;;;;14.55;59.47;101078.63;6085333;23;7000;-78
2024/01/26 05:11:42;;;;;;;;;;;;;;;14.53;59.88;101081.13;6085192;23;7215;-78
2024/01/26 05:14:08;;;;;;;;;;;;;;;14.52;60.23;101078.47;6084375;23;6988;-77
2024/01/26 05:16:33;;;;;;;;;;;;;;;14.50;59.33;101073.25;6085358;23;6759;-77
2024/01/26 05:18:59;;;;;;;;;;;;;;;14.50;59.82;101080.09;6085799;23;6763;-78
2024/01/26 05:21:25;;;;;;;;;;;;;;;14.47;59.91;101067.09;6086267;23;6759;-78
2024/01/26 05:23:50;;;;;;;;;;;;;;;14.44;59.65;101062.66;6086067;23;6895;-77
2024/01/26 05:26:17;;;;;;;;;;;;;;;14.40;59.43;101061.66;6085885;23;7295;-77
2024/01/26 05:28:43;;;;;;;;;;;;;;;14.38;59.77;101057.25;6085269;23;7198;-77
2024/01/26 05:31:09;;;;;;;;;;;;;;;14.37;59.71;101052.91;6061208;23;7188;-77
2024/01/26 05:33:35;;;;;;;;;;;;;;;14.36;59.98;101043.41;6085369;23;6942;-77
2024/01/26 05:36:00;;;;;;;;;;;;;;;14.33;59.74;101038.13;6085976;23;6950;-78
2024/01/26 05:38:26;;;;;;;;;;;;;;;14.29;59.49;101045.75;6085749;23;6942;-77
2024/01/26 05:40:51;;;;;;;;;;;;;;;14.30;59.62;101047.50;6037558;23;7047;-77
2024/01/26 05:43:17;;;;;;;;;;;;;;;14.33;60.20;101032.97;6085570;23;6922;-77
2024/01/26 05:45:43;;;;;;;;;;;;;;;14.38;60.05;101034.94;6085514;23;6759;-77
2024/01/26 05:48:08;;;;;;;;;;;;;;;14.44;59.74;101034.31;6085840;23;7387;-77
2024/01/26 05:50:35;;;;;;;;;;;;;;;14.48;59.84;101028.44;6086208;23;7138;-77
2024/01/26 05:53:02;;;;;;;;;;;;;;;14.53;60.49;101034.69;6084654;23;6949;-77
2024/01/26 05:55:27;;;;;;;;;;;;;;;14.57;60.31;101028.84;6085088;23;6779;-77
2024/01/26 05:58:11;;;;;;;;;;;;;;;14.62;60.14;101033.31;6058673;23;6767;-84
2024/01/26 06:03:15;;;;;;;;;;;;;;;14.74;59.90;101033.00;6066011;23;7014;-81
2024/01/26 06:05:46;;;;;;;;;;;;;;;14.77;59.58;101035.69;6067583;23;7320;-82
2024/01/26 06:08:15;;;;;;;;;;;;;;;14.79;59.61;101024.59;6068656;23;7154;-86
2024/01/26 06:10:49;;;;;;;;;;;;;;;14.86;59.44;101020.56;6043935;23;6998;-85
2024/01/26 06:13:20;;;;;;;;;;;;;;;14.88;59.21;101029.25;6066243;23;7127;-82
2024/01/26 06:15:55;;;;;;;;;;;;;;;14.86;59.25;101021.44;6067779;23;7206;-81
2024/01/26 06:18:23;;;;;;;;;;;;;;;14.88;59.47;101020.66;6091507;23;6749;-85
2024/01/26 06:21:00;;;;;;;;;;;;;;;14.86;58.96;101026.59;6069496;23;6918;-85
2024/01/26 06:28:48;;;;;;;;;;;;;;;14.88;59.29;101005.16;6070623;23;6977;-84
2024/01/26 06:31:38;;;;;;;;;;;;;;;14.79;59.85;100996.22;6047393;23;6926;-84
2024/01/26 06:34:12;;;;;;;;;;;;;;;14.75;59.23;101002.06;6090918;23;7011;-86
2024/01/26 06:36:46;;;;;;;;;;;;;;;14.69;59.83;101006.97;6047913;23;6912;-84
2024/01/26 06:39:12;;;;;;;;;;;;;;;14.67;59.57;100995.69;6043043;23;6742;-84
2024/01/26 06:42:04;;;;;;;;;;;;;;;14.65;60.02;100994.75;6047532;23;6710;-84
2024/01/26 06:47:06;;;;;;;;;;;;;;;14.58;60.32;100994.50;6090646;23;7021;-83
2024/01/26 06:52:10;;;;;;;;;;;;;;;14.61;61.73;101003.19;6091996;23;6870;-84
2024/01/26 06:54:39;;;;;;;;;;;;;;;14.62;61.17;100995.50;6073703;23;6782;-86
2024/01/26 06:57:06;;;;;;;;;;;;;;;14.60;61.31;100991.09;6096577;23;6901;-87
2024/01/26 06:59:37;;;;;;;;;;;;;;;14.65;61.54;100982.72;6095382;23;6884;-88
2024/01/26 07:02:04;;;;;;;;;;;;;;;14.65;61.43;100979.25;6039954;23;6878;-87
2024/01/26 07:04:32;;;;;;;;;;;;;;;14.68;61.79;100990.59;6008964;23;6918;-87
2024/01/26 07:06:58;;;;;;;;;;;;;;;14.69;62.11;100992.34;6035786;23;6917;-77
2024/01/26 07:09:23;;;;;;;;;;;;;;;14.71;62.16;100989.84;6094075;23;6823;-86
2024/01/26 07:14:55;;;;;;;;;;;;;;;14.74;61.92;100984.81;6083882;23;6871;-86
2024/01/26 07:20:05;;;;;;;;;;;;;;;14.77;62.35;100979.78;6069694;23;6883;-83
2024/01/26 07:22:30;;;;;;;;;;;;;;;14.77;62.62;100982.34;6100982;23;6943;-83
2024/01/26 07:31:20;;;;;;;;;;;;;;;14.73;62.67;100993.38;6033088;23;6967;-84
2024/01/26 07:36:36;;;;;;;;;;;;;;;14.68;62.70;100982.84;6078272;23;6867;-84
2024/01/26 07:39:11;;;;;;;;;;;;;;;14.70;62.84;100993.25;6045305;23;6870;-84
2024/01/26 07:44:20;;;;;;;;;;;;;;;14.71;62.48;100989.84;6101194;23;6911;-84
2024/01/26 07:47:11;;;;;;;;;;;;;;;14.69;63.18;100987.19;6082032;23;6820;-84
2024/01/26 07:49:40;;;;;;;;;;;;;;;14.70;62.54;100982.91;6062061;23;6795;-84
2024/01/26 07:52:15;;;;;;;;;;;;;;;14.70;63.62;100988.09;6062764;23;6773;-84
2024/01/26 07:54:48;;;;;;;;;;;;;;;14.71;63.25;101007.91;6054488;23;6932;-84
2024/01/26 07:57:42;;;;;;;;;;;;;;;14.73;62.81;101014.03;6046574;23;6810;-83
2024/01/26 08:00:17;;;;;;;;;;;;;;;14.74;63.29;101009.75;6082154;23;6919;-84
2024/01/26 08:02:57;;;;;;;;;;;;;;;14.74;62.78;100989.97;6030738;23;11575;-84
2024/01/26 08:05:28;;;;;;;;;;;;;;;14.73;63.21;100970.16;6053814;23;6934;-84
2024/01/26 08:07:56;;;;;;;;;;;;;;;14.73;63.50;100962.44;6030921;23;6739;-84
2024/01/26 08:10:39;;;;;;;;;;;;;;;14.75;63.45;100955.63;6077120;23;6934;-83
2024/01/26 08:15:49;;;;;;;;;;;;;;;14.76;64.11;100961.69;6083208;23;7011;-85
2024/01/26 08:20:42;;;;;;;;;;;;;;;14.80;63.95;100968.72;6060582;23;6979;-77
2024/01/26 08:23:08;;;;;;;;;;;;;;;14.78;64.09;100950.59;6036749;23;6938;-77
2024/01/26 08:25:33;;;;;;;;;;;;;;;14.79;63.95;100966.94;6037484;23;8353;-77
2024/01/26 08:27:59;;;;;;;;;;;;;;;14.85;63.85;100955.16;6060971;23;6755;-77
2024/01/26 08:30:25;;;;;;;;;;;;;;;14.92;63.87;100963.16;6038779;23;7270;-77
2024/01/26 08:32:51;;;;;;;;;;;;;;;14.97;64.06;100975.41;6088975;23;6747;-77
2024/01/26 08:35:17;;;;;;;;;;;;;;;15.05;63.62;100975.72;6090623;23;7181;-77
2024/01/26 08:37:43;;;;;;;;;;;;;;;15.10;63.78;100989.69;6090520;23;6985;-76
2024/01/26 08:40:09;;;;;;;;;;;;;;;15.18;63.65;100978.78;6063560;23;7135;-77
2024/01/26 08:42:35;;;;;;;;;;;;;;;15.23;63.17;100974.66;6086775;23;6918;-76
2024/01/26 08:45:02;;;;;;;;;;;;;;;15.27;63.18;100971.38;6088438;23;6771;-77
2024/01/26 08:47:28;;;;;;;;;;;;;;;15.30;63.28;100994.75;6089766;23;7216;-77
2024/01/26 08:49:54;;;;;;;;;;;;;;;15.32;63.08;100985.34;6088802;23;6842;-77
2024/01/26 08:52:19;;;;;;;;;;;;;;;15.33;62.75;101010.34;6065129;23;6936;-77
2024/01/26 08:54:45;;;;;;;;;;;;;;;15.35;63.09;101023.31;6089430;23;6946;-77
2024/01/26 08:57:11;;;;;;;;;;;;;;;15.35;62.87;101010.41;6063618;23;6931;-77
2024/01/26 08:59:38;;;;;;;;;;;;;;;15.35;62.48;101011.28;6064838;23;6935;-77
2024/01/26 09:02:04;;;;;;;;;;;;;;;15.35;62.92;101037.09;6085890;23;6783;-77
2024/01/26 09:04:30;;;;;;;;;;;;;;;15.33;62.71;101033.59;6088956;23;6763;-77
2024/01/26 09:06:55;;;;;;;;;;;;;;;15.30;62.68;101038.63;6089142;23;7382;-77
2024/01/26 09:09:22;;;;;;;;;;;;;;;15.27;62.86;101026.47;6088454;23;6759;-77
2024/01/26 09:11:47;;;;;;;;;;;;;;;15.26;63.35;101026.44;6064165;23;7315;-77
2024/01/26 09:14:13;;;;;;;;;;;;;;;15.25;63.39;101040.16;6087880;23;6946;-77
2024/01/26 09:16:39;;;;;;;;;;;;;;;15.25;63.26;101041.03;6088275;23;7196;-76
2024/01/26 09:19:04;;;;;;;;;;;;;;;15.25;63.20;101025.56;6063972;23;7040;-77
2024/01/26 09:21:30;;;;;;;;;;;;;;;15.27;63.45;101043.69;6087296;23;6755;-77
2024/01/26 09:23:56;;;;;;;;;;;;;;;15.27;63.33;101035.94;6088489;23;6941;-76
2024/01/26 09:26:22;;;;;;;;;;;;;;;15.25;63.19;101019.50;6064777;23;6970;-77
2024/01/26 09:28:48;;;;;;;;;;;;;;;15.27;64.03;101028.19;6089707;23;6827;-78
2024/01/26 09:31:14;;;;;;;;;;;;;;;15.28;63.86;101017.03;6063332;23;7022;-78
2024/01/26 09:33:39;;;;;;;;;;;;;;;15.30;63.99;101030.88;6087973;23;6814;-77
2024/01/26 09:36:05;;;;;;;;;;;;;;;15.32;63.78;101023.22;6088652;23;6890;-77
2024/01/26 09:38:31;;;;;;;;;;;;;;;15.33;64.00;101023.25;6089875;23;6783;-77
2024/01/26 09:40:56;;;;;;;;;;;;;;;15.35;63.64;101015.56;6091493;23;6950;-78
2024/01/26 09:43:22;;;;;;;;;;;;;;;15.36;63.57;101025.06;6063364;23;7027;-77
2024/01/26 09:45:53;;;;;;;;;;;;;;;15.38;63.71;101023.44;6089655;23;7405;-77
2024/01/26 09:48:20;;;;;;;;;;;;;;;15.38;64.16;101021.75;6089007;23;6778;-77
2024/01/26 09:50:51;;;;;;;;;;;;;;;15.38;64.24;101026.91;6086504;23;7128;-77
2024/01/26 09:53:18;;;;;;;;;;;;;;;15.39;63.75;101031.25;6063902;23;7316;-77
2024/01/26 09:55:46;;;;;;;;;;;;;;;15.40;64.08;101039.84;6088344;23;7033;-76
2024/01/26 09:58:12;;;;;;;;;;;;;;;15.40;63.75;101056.25;6088136;23;6926;-76
2024/01/26 10:00:38;;;;;;;;;;;;;;;15.42;64.26;101048.56;6089386;23;6794;-76
2024/01/26 10:03:04;;;;;;;;;;;;;;;15.44;64.42;101048.59;6088401;23;6902;-76
2024/01/26 10:05:30;;;;;;;;;;;;;;;15.47;64.12;101056.50;6065136;23;6952;-76
2024/01/26 10:07:56;;;;;;;;;;;;;;;15.50;64.29;101061.78;6064823;23;6944;-76
2024/01/26 10:10:23;;;;;;;;;;;;;;;15.53;64.22;101065.34;6088004;23;6958;-76
2024/01/26 10:12:50;;;;;;;;;;;;;;;15.58;64.47;101054.31;6088889;23;6770;-77
2024/01/26 10:15:16;;;;;;;;;;;;;;;15.62;64.49;101064.81;6088316;23;7050;-77
2024/01/26 10:17:43;;;;;;;;;;;;;;;15.65;64.01;101066.63;6064142;23;6964;-77
2024/01/26 10:20:14;;;;;;;;;;;;;;;15.69;64.25;101066.81;6084640;23;7261;-76
2024/01/26 10:22:43;;;;;;;;;;;;;;;15.77;64.01;101068.81;6089762;23;6930;-77
2024/01/26 10:25:09;;;;;;;;;;;;;;;15.83;64.30;101069.03;6089903;23;6914;-76
2024/01/26 10:27:35;;;;;;;;;;;;;;;15.88;63.68;101071.78;6088434;23;6834;-77
2024/01/26 10:30:03;;;;;;;;;;;;;;;15.91;63.82;101064.19;6087593;23;6814;-76
2024/01/26 10:32:31;;;;;;;;;;;;;;;15.92;63.55;101077.16;6088302;23;6775;-76
2024/01/26 10:34:59;;;;;;;;;;;;;;;15.91;63.51;101077.13;6088654;23;6775;-75
2024/01/26 10:37:33;;;;;;;;;;;;;;;15.83;62.89;101167.25;6096155;23;6767;-76
2024/01/26 10:40:00;;;;;;;;;;;;;;;15.75;62.71;101171.25;6076924;23;6956;-74
2024/01/26 10:42:32;;;;;;;;;;;;;;;15.63;62.82;101180.25;6092932;23;7057;-74
2024/01/26 10:45:01;;;;;;;;;;;;;;;15.45;62.13;101169.19;6117089;23;6779;-74
2024/01/26 10:55:26;;;;;;;;;;;;;;;14.71;62.28;101171.31;6060696;23;7073;-86
2024/01/26 10:58:41;;;;;;;;;;;;;;;14.65;62.61;101190.81;6061418;23;7011;-88
2024/01/26 11:01:42;;;;;;;;;;;;;;;14.51;62.40;101208.25;6024626;23;6801;-88
2024/01/26 11:04:46;;;;;;;;;;;;;;;14.42;62.69;101212.19;6041615;23;6730;-87
2024/01/26 11:10:13;;;;;;;;;;;;;;;14.40;63.20;101218.97;6061657;23;7000;-87
2024/01/26 11:12:51;;;;;;;;;;;;;;;;;;;;;
2024/01/26 11:19:08;;;;;;;;;;;;;;;14.87;63.31;101249.44;6079783;23;6783;-86
2024/01/26 11:22:15;;;;;;;;;;;;;;;15.09;63.14;101251.25;6068501;23;8195;-86
2024/01/26 11:24:50;;;;;;;;;;;;;;;15.20;62.04;101268.91;6116725;23;8348;-86
2024/01/26 11:29:58;;;;;;;;;;;;;;;16.09;61.21;101260.47;6089397;23;7075;-84
2024/01/26 11:32:33;;;;;;;;;;;;;;;16.66;58.65;101262.66;6072028;23;6744;-84
2024/01/26 11:35:08;;;;;;;;;;;;;;;17.23;57.17;101260.34;6089465;23;7075;-85
2024/01/26 11:38:03;;;;;;;;;;;;;;;;;;;;;
2024/01/26 11:40:46;;;;;;;;;;;;;;;18.51;54.09;101266.94;6102386;23;6966;-83
2024/01/26 11:43:12;;;;;;;;;;;;;;;18.66;52.32;101288.16;6122377;23;6787;-84
2024/01/26 11:45:47;;;;;;;;;;;;;;;18.46;51.49;101296.25;6092158;23;7176;-83
2024/01/26 11:48:17;;;;;;;;;;;;;;;18.12;50.99;101294.34;6074800;23;7006;-83
2024/01/26 11:50:52;;;;;;;;;;;;;;;18.00;51.32;101319.00;6037238;23;6753;-83
2024/01/26 11:53:23;;;;;;;;;;;;;;;17.87;50.72;101324.63;6018811;23;7035;-83
2024/01/26 11:55:50;;;;;;;;;;;;;;;18.04;51.00;101322.63;6029267;23;6920;-78
2024/01/26 11:58:16;;;;;;;;;;;;;;;17.95;49.84;101336.16;6070335;23;6767;-78
2024/01/26 12:00:42;;;;;;;;;;;;;;;17.55;49.04;101338.28;6068636;23;6771;-78
2024/01/26 12:03:09;;;;;;;;;;;;;;;17.30;49.13;101332.25;6066561;23;6888;-78
2024/01/26 12:05:36;;;;;;;;;;;;;;;17.13;49.76;101342.00;6067672;23;6770;-78
2024/01/26 12:08:04;;;;;;;;;;;;;;;16.90;49.02;101364.44;6048362;23;7035;-78
2024/01/26 12:10:35;;;;;;;;;;;;;;;16.51;49.22;101386.28;6077968;23;6860;-78
2024/01/26 12:13:01;;;;;;;;;;;;;;;16.07;48.88;101379.34;6067764;23;7157;-77
2024/01/26 12:15:32;;;;;;;;;;;;;;;15.67;49.50;101403.50;6067949;23;6767;-77
2024/01/26 12:18:00;;;;;;;;;;;;;;;15.34;49.20;101416.72;6073603;23;7217;-78
2024/01/26 12:20:26;;;;;;;;;;;;;;;15.09;49.14;101395.84;6073026;23;6783;-78
2024/01/26 12:22:55;;;;;;;;;;;;;;;14.86;49.27;101413.72;6049752;23;7196;-77
2024/01/26 12:25:24;;;;;;;;;;;;;;;14.58;49.61;101421.84;6049907;23;6960;-77
2024/01/26 12:27:50;;;;;;;;;;;;;;;14.28;49.38;101422.97;6055411;23;7153;-76
2024/01/26 12:30:16;;;;;;;;;;;;;;;14.03;49.10;101442.41;6077967;23;7162;-76
2024/01/26 12:32:42;;;;;;;;;;;;;;;13.86;49.08;101463.84;6080243;23;6763;-77
2024/01/26 12:35:08;;;;;;;;;;;;;;;13.73;49.70;101464.91;6056707;23;7031;-76
2024/01/26 12:37:33;;;;;;;;;;;;;;;13.65;48.71;101459.34;6081664;23;6770;-76
2024/01/26 12:39:59;;;;;;;;;;;;;;;13.60;49.36;101478.81;6053145;23;6918;-76
2024/01/26 12:42:25;;;;;;;;;;;;;;;13.56;48.66;101479.47;6077762;23;6990;-76
2024/01/26 12:44:51;;;;;;;;;;;;;;;13.55;48.48;101485.44;6074123;23;6919;-77
2024/01/26 12:47:16;;;;;;;;;;;;;;;13.53;48.26;101479.31;6054463;23;6962;-77
2024/01/26 12:49:42;;;;;;;;;;;;;;;13.50;48.53;101490.34;6055091;23;6964;-77
2024/01/26 12:52:10;;;;;;;;;;;;;;;13.54;48.92;101501.69;6056862;23;7021;-77
2024/01/26 12:54:35;;;;;;;;;;;;;;;13.56;47.93;101518.13;6059355;23;7240;-77
2024/01/26 12:57:02;;;;;;;;;;;;;;;13.56;48.24;101529.28;6074061;23;6883;-77
2024/01/26 12:59:27;;;;;;;;;;;;;;;13.57;47.48;101518.22;6060117;23;7213;-76
2024/01/26 13:01:53;;;;;;;;;;;;;;;13.58;47.83;101524.22;6059277;23;6792;-76
2024/01/26 13:04:19;;;;;;;;;;;;;;;13.56;47.27;101521.56;6036414;23;7180;-76
2024/01/26 13:06:45;;;;;;;;;;;;;;;13.56;47.62;101543.88;6036973;23;7215;-76
2024/01/26 13:09:10;;;;;;;;;;;;;;;13.53;46.95;101551.44;6036919;23;7148;-75
2024/01/26 13:11:37;;;;;;;;;;;;;;;13.49;46.82;101541.75;6061774;23;7365;-76
2024/01/26 13:14:04;;;;;;;;;;;;;;;13.46;46.48;101556.25;6060289;23;6787;-75
2024/01/26 13:16:30;;;;;;;;;;;;;;;13.47;46.61;101581.19;6058478;23;6962;-75
2024/01/26 13:18:55;;;;;;;;;;;;;;;13.47;46.62;101562.28;6060952;23;6854;-75
2024/01/26 13:21:21;;;;;;;;;;;;;;;13.47;46.26;101568.31;6037133;23;6953;-75
2024/01/26 13:23:47;;;;;;;;;;;;;;;13.52;46.76;101585.69;6061353;23;6834;-75
2024/01/26 13:26:13;;;;;;;;;;;;;;;13.56;46.65;101582.50;6037143;23;7112;-75
2024/01/26 13:28:38;;;;;;;;;;;;;;;13.60;46.24;101585.34;6061946;23;7143;-75
2024/01/26 13:31:05;;;;;;;;;;;;;;;13.66;45.57;101587.34;6036476;23;7165;-75
2024/01/26 13:33:31;;;;;;;;;;;;;;;13.70;45.57;101585.84;6060494;23;6809;-75
2024/01/26 13:35:56;;;;;;;;;;;;;;;13.72;45.42;101585.13;6060339;23;6966;-76
2024/01/26 13:38:23;;;;;;;;;;;;;;;13.73;46.17;101583.41;6061140;23;6811;-76
2024/01/26 13:40:50;;;;;;;;;;;;;;;13.71;46.33;101577.31;6037006;23;7046;-75
2024/01/26 13:43:18;;;;;;;;;;;;;;;13.68;46.06;101590.03;6061193;23;6775;-77
2024/01/26 13:45:44;;;;;;;;;;;;;;;13.64;46.26;101599.28;6060092;23;7814;-77
2024/01/26 13:48:10;;;;;;;;;;;;;;;13.61;45.60;101589.69;6060553;23;6783;-77